createdAt,value
2019-05-28T00:02:40.602Z,16.84
2019-05-28T00:07:46.710Z,16.69
2019-05-28T00:12:51.786Z,16.62
2019-05-28T00:17:56.986Z,16.56
2019-05-28T00:23:02.019Z,16.57
2019-05-28T00:28:07.322Z,16.59
2019-05-28T00:33:12.430Z,16.62
2019-05-28T00:38:17.474Z,16.59
2019-05-28T00:43:22.822Z,16.43
2019-05-28T00:48:27.816Z,16.35
2019-05-28T00:53:32.862Z,16.44
2019-05-28T00:58:38.787Z,16.47
2019-05-28T01:03:43.826Z,16.34
2019-05-28T01:08:48.869Z,16.43
2019-05-28T01:13:53.946Z,16.38
2019-05-28T01:18:59.952Z,16.20
2019-05-28T01:24:05.344Z,16.18
2019-05-28T01:29:10.686Z,16.20
2019-05-28T01:34:15.681Z,16.22
2019-05-28T01:39:20.903Z,16.07
2019-05-28T01:44:26.415Z,15.95
2019-05-28T01:49:31.446Z,15.97
2019-05-28T01:54:36.467Z,16.06
2019-05-28T01:59:41.486Z,16.06
2019-05-28T02:04:46.528Z,16.01
2019-05-28T02:09:51.583Z,16.02
2019-05-28T02:14:57.065Z,15.91
2019-05-28T02:20:04.904Z,15.93
2019-05-28T02:25:11.505Z,15.92
2019-05-28T02:30:16.839Z,15.88
2019-05-28T02:35:22.092Z,15.86
2019-05-28T02:40:27.714Z,15.79
2019-05-28T02:45:32.768Z,15.86
2019-05-28T02:51:06.517Z,15.77
2019-05-28T02:56:14.472Z,15.85
2019-05-28T03:01:20.660Z,15.81
2019-05-28T03:06:25.753Z,15.85
2019-05-28T03:11:31.126Z,15.92
2019-05-28T03:16:40.006Z,15.91
2019-05-28T03:21:46.659Z,15.91
2019-05-28T03:26:51.705Z,15.92
2019-05-28T03:32:08.131Z,15.95
2019-05-28T03:37:04.163Z,16.01
2019-05-28T03:42:09.188Z,15.98
2019-05-28T03:47:14.285Z,16.02
2019-05-28T03:52:21.601Z,16.04
2019-05-28T03:57:26.636Z,16.00
2019-05-28T04:02:31.685Z,15.99
2019-05-28T04:07:37.144Z,16.01
2019-05-28T04:12:42.174Z,15.97
2019-05-28T04:17:47.209Z,15.98
2019-05-28T04:22:52.282Z,15.96
2019-05-28T04:27:57.412Z,15.93
2019-05-28T04:33:02.628Z,15.87
2019-05-28T04:38:07.664Z,15.92
2019-05-28T04:43:12.777Z,15.94
2019-05-28T04:48:17.923Z,15.90
2019-05-28T04:53:23.418Z,15.91
2019-05-28T04:58:28.491Z,15.92
2019-05-28T05:03:33.573Z,15.95
2019-05-28T05:08:38.756Z,15.81
2019-05-28T05:13:43.824Z,15.81
2019-05-28T05:18:49.026Z,15.86
2019-05-28T05:23:54.128Z,15.90
2019-05-28T05:28:59.808Z,15.89
2019-05-28T05:34:04.826Z,15.90
2019-05-28T05:39:09.976Z,15.83
2019-05-28T05:44:15.326Z,15.83
2019-05-28T05:49:21.075Z,15.82
2019-05-28T05:54:26.169Z,15.77
2019-05-28T05:59:31.239Z,15.84
2019-05-28T06:04:36.328Z,15.89
2019-05-28T06:09:41.373Z,15.95
2019-05-28T06:14:46.406Z,15.95
2019-05-28T06:19:51.508Z,15.99
2019-05-28T06:24:56.949Z,16.03
2019-05-28T06:30:02.332Z,16.06
2019-05-28T06:35:10.150Z,16.11
2019-05-28T06:40:15.327Z,16.21
2019-05-28T06:45:20.428Z,16.15
2019-05-28T06:50:25.577Z,16.22
2019-05-28T06:55:30.628Z,16.24
2019-05-28T07:00:35.701Z,16.29
2019-05-28T07:05:40.817Z,16.46
2019-05-28T07:10:57.177Z,16.54
2019-05-28T07:15:52.738Z,16.61
2019-05-28T07:20:57.877Z,16.62
2019-05-28T07:26:02.917Z,16.71
2019-05-28T07:31:07.953Z,16.79
2019-05-28T07:36:13.367Z,16.94
2019-05-28T07:41:19.574Z,16.82
2019-05-28T07:46:24.831Z,16.89
2019-05-28T07:51:29.878Z,16.72
2019-05-28T07:56:35.008Z,16.77
2019-05-28T08:01:40.117Z,16.82
2019-05-28T08:06:54.785Z,16.93
2019-05-28T08:11:52.435Z,16.84
2019-05-28T08:16:57.454Z,16.79
2019-05-28T08:22:02.619Z,16.97
2019-05-28T08:27:07.694Z,17.19
2019-05-28T08:32:12.694Z,17.46
2019-05-28T08:37:17.770Z,17.47
2019-05-28T08:42:25.917Z,17.46
2019-05-28T08:47:31.041Z,17.41
2019-05-28T08:52:36.519Z,17.43
2019-05-28T08:57:42.691Z,17.47
2019-05-28T09:02:47.749Z,17.62
2019-05-28T09:07:52.808Z,17.71
2019-05-28T09:12:58.140Z,17.83
2019-05-28T09:18:04.537Z,17.87
2019-05-28T09:23:09.800Z,17.84
2019-05-28T09:28:29.413Z,18.05
2019-05-28T09:33:22.107Z,18.09
2019-05-28T09:38:27.227Z,18.08
2019-05-28T09:43:32.305Z,18.18
2019-05-28T09:48:37.393Z,18.26
2019-05-28T09:53:42.491Z,18.44
2019-05-28T09:58:47.649Z,18.42
2019-05-28T10:03:52.702Z,18.56
2019-05-28T10:08:57.894Z,18.48
2019-05-28T10:14:02.970Z,18.56
2019-05-28T10:19:08.188Z,18.67
2019-05-28T10:24:13.377Z,18.79
2019-05-28T10:29:18.472Z,18.79
2019-05-28T10:34:23.642Z,18.93
2019-05-28T10:39:28.734Z,18.96
2019-05-28T10:44:33.833Z,18.93
2019-05-28T10:49:38.944Z,18.96
2019-05-28T10:54:44.107Z,19.07
2019-05-28T10:59:49.177Z,18.91
2019-05-28T11:04:54.325Z,18.90
2019-05-28T11:09:59.562Z,18.96
2019-05-28T11:15:05.492Z,18.87
2019-05-28T11:20:11.060Z,18.73
2019-05-28T11:25:16.199Z,18.73
2019-05-28T11:30:21.370Z,18.69
2019-05-28T11:35:26.640Z,18.68
2019-05-28T11:40:32.043Z,18.64
2019-05-28T11:45:37.143Z,18.92
2019-05-28T11:50:42.245Z,18.98
2019-05-28T11:55:47.367Z,19.13
2019-05-28T12:00:52.749Z,19.17
2019-05-28T12:05:57.858Z,19.14
2019-05-28T12:11:03.003Z,19.17
2019-05-28T12:16:08.123Z,19.20
2019-05-28T12:21:13.153Z,19.34
2019-05-28T12:26:18.209Z,19.42
2019-05-28T12:31:23.233Z,19.61
2019-05-28T12:36:28.596Z,19.71
2019-05-28T12:41:33.718Z,19.56
2019-05-28T12:46:39.083Z,19.41
2019-05-28T12:51:44.167Z,19.41
2019-05-28T12:56:50.200Z,19.35
2019-05-28T13:01:55.242Z,19.37
2019-05-28T13:07:00.276Z,19.44
2019-05-28T13:12:05.370Z,19.49
2019-05-28T13:17:10.564Z,19.27
2019-05-28T13:22:15.612Z,19.19
2019-05-28T13:27:21.056Z,19.04
2019-05-28T13:32:26.258Z,18.86
2019-05-28T13:37:31.323Z,18.86
2019-05-28T13:42:36.523Z,18.88
2019-05-28T13:47:41.555Z,18.93
2019-05-28T13:52:47.962Z,18.88
2019-05-28T13:57:52.971Z,18.83
2019-05-28T14:02:58.264Z,18.93
2019-05-28T14:08:03.421Z,19.02
2019-05-28T14:13:08.524Z,19.03
2019-05-28T14:18:14.513Z,19.01
2019-05-28T14:23:19.638Z,18.99
2019-05-28T14:28:24.729Z,19.01
2019-05-28T14:33:29.752Z,19.02
2019-05-28T14:38:34.856Z,19.09
2019-05-28T14:43:40.166Z,19.25
2019-05-28T14:48:45.787Z,19.40
2019-05-28T14:53:51.373Z,19.57
2019-05-28T14:58:56.525Z,19.59
2019-05-28T15:04:01.641Z,19.61
2019-05-28T15:09:20.470Z,19.59
2019-05-28T15:14:15.448Z,19.56
2019-05-28T15:19:20.563Z,19.47
2019-05-28T15:24:26.016Z,19.43
2019-05-28T15:29:31.095Z,19.45
2019-05-28T15:34:36.187Z,19.41
2019-05-28T15:39:41.689Z,19.35
2019-05-28T15:44:46.807Z,19.32
2019-05-28T15:49:51.916Z,19.27
2019-05-28T15:54:57.055Z,19.24
2019-05-28T16:00:02.483Z,19.28
2019-05-28T16:05:09.161Z,19.29
2019-05-28T16:10:18.560Z,19.26
2019-05-28T16:15:23.582Z,19.24
2019-05-28T16:20:28.704Z,19.19
2019-05-28T16:25:33.810Z,19.22
2019-05-28T16:30:39.134Z,19.15
2019-05-28T16:35:44.228Z,19.11
2019-05-28T16:40:50.201Z,19.05
2019-05-28T16:45:55.252Z,19.02
2019-05-28T16:51:00.667Z,18.97
2019-05-28T16:56:05.913Z,18.90
2019-05-28T17:01:22.375Z,18.83
2019-05-28T17:06:18.220Z,18.80
2019-05-28T17:11:27.407Z,18.75
2019-05-28T17:16:30.411Z,18.67
2019-05-28T17:21:35.561Z,18.63
2019-05-28T17:26:45.810Z,18.59
2019-05-28T17:31:50.877Z,18.48
2019-05-28T17:36:56.318Z,18.37
2019-05-28T17:42:05.485Z,18.28
2019-05-28T17:47:12.842Z,18.25
2019-05-28T17:52:19.607Z,18.22
2019-05-28T17:57:24.745Z,18.18
2019-05-28T18:02:29.848Z,18.19
2019-05-28T18:07:34.947Z,18.16
2019-05-28T18:12:40.200Z,18.07
2019-05-28T18:17:46.826Z,17.76
2019-05-28T18:22:56.149Z,17.20
2019-05-28T18:28:01.466Z,16.81
2019-05-28T18:33:06.733Z,16.66
2019-05-28T18:38:11.889Z,16.47
2019-05-28T18:43:17.051Z,16.37
2019-05-28T18:48:22.255Z,16.24
2019-05-28T18:53:27.686Z,16.22
2019-05-28T18:58:35.594Z,16.13
2019-05-28T19:03:39.999Z,16.08
2019-05-28T19:08:45.217Z,15.94
2019-05-28T19:13:51.683Z,15.87
2019-05-28T19:19:00.415Z,15.78
2019-05-28T19:24:07.239Z,15.79
2019-05-28T19:29:16.228Z,15.83
2019-05-28T19:34:23.116Z,15.81
2019-05-28T19:39:28.518Z,15.81
2019-05-28T19:44:33.677Z,15.73
2019-05-28T19:49:39.137Z,15.71
2019-05-28T19:54:44.415Z,15.67
2019-05-28T19:59:52.697Z,15.52
2019-05-28T20:04:59.175Z,15.33
2019-05-28T20:10:04.625Z,15.36
2019-05-28T20:15:11.211Z,15.35
2019-05-28T20:20:18.389Z,15.32
2019-05-28T20:25:23.564Z,15.29
2019-05-28T20:30:29.152Z,15.23
2019-05-28T20:35:34.427Z,15.18
2019-05-28T20:40:41.562Z,15.16
2019-05-28T20:45:46.671Z,15.27
2019-05-28T20:51:05.069Z,15.23
2019-05-28T20:55:59.573Z,15.17
2019-05-28T21:01:05.794Z,15.10
2019-05-28T21:06:10.862Z,15.15
2019-05-28T21:11:15.878Z,15.12
2019-05-28T21:16:21.220Z,15.04
2019-05-28T21:21:26.248Z,14.94
2019-05-28T21:26:31.731Z,14.92
2019-05-28T21:31:36.730Z,14.92
2019-05-28T21:36:42.028Z,14.88
2019-05-28T21:41:47.067Z,14.83
2019-05-28T21:46:52.371Z,14.77
2019-05-28T21:51:58.647Z,14.72
2019-05-28T21:57:04.953Z,14.71
2019-05-28T22:02:12.912Z,14.73
2019-05-28T22:07:19.096Z,14.76
2019-05-28T22:12:24.128Z,14.70
2019-05-28T22:17:29.377Z,14.66
2019-05-28T22:22:34.410Z,14.59
2019-05-28T22:27:39.447Z,14.58
2019-05-28T22:32:44.575Z,14.56
2019-05-28T22:37:49.907Z,14.46
2019-05-28T22:42:54.962Z,14.39
2019-05-28T22:48:01.801Z,14.36
2019-05-28T22:53:08.072Z,14.40
2019-05-28T22:58:13.321Z,14.47
2019-05-28T23:03:18.492Z,14.49
2019-05-28T23:08:23.574Z,14.51
2019-05-28T23:13:28.604Z,14.48
2019-05-28T23:18:34.088Z,14.48
2019-05-28T23:23:39.275Z,14.49
2019-05-28T23:28:44.268Z,14.48
2019-05-28T23:33:49.349Z,14.45
2019-05-28T23:38:54.398Z,14.48
2019-05-28T23:44:02.280Z,14.47
2019-05-28T23:49:06.177Z,14.51
2019-05-28T23:54:12.178Z,14.56
2019-05-28T23:59:18.057Z,14.56
